createdAt,value
2022-12-23T00:01:06.306Z,93.30
2022-12-23T00:03:35.082Z,74.50
2022-12-23T00:06:08.856Z,95.10
2022-12-23T00:08:37.488Z,138.80
2022-12-23T00:11:10.429Z,121.20
2022-12-23T00:13:57.157Z,121.00
2022-12-23T00:16:25.328Z,117.70
2022-12-23T00:18:54.952Z,126.20
2022-12-23T00:21:23.735Z,118.00
2022-12-23T00:23:51.947Z,102.90
2022-12-23T00:26:25.849Z,210.70
2022-12-23T00:28:57.947Z,215.90
2022-12-23T00:31:26.531Z,117.70
2022-12-23T00:33:54.858Z,129.90
2022-12-23T00:36:30.667Z,147.30
2022-12-23T00:39:18.359Z,167.00
2022-12-23T00:42:04.952Z,383.60
2022-12-23T00:44:33.153Z,309.40
2022-12-23T00:47:01.233Z,126.80
2022-12-23T00:49:44.709Z,108.80
2022-12-23T00:52:15.907Z,116.90
2022-12-23T00:54:44.258Z,78.90
2022-12-23T00:57:12.313Z,114.60
2022-12-23T00:59:40.420Z,132.10
2022-12-23T01:02:30.181Z,129.60
2022-12-23T01:05:17.188Z,102.80
2022-12-23T01:07:45.192Z,95.70
2022-12-23T01:10:13.364Z,60.10
2022-12-23T01:12:41.458Z,50.60
2022-12-23T01:15:09.903Z,57.30
2022-12-23T01:17:37.999Z,84.90
2022-12-23T01:20:06.556Z,64.20
2022-12-23T01:22:34.664Z,75.70
2022-12-23T01:25:03.062Z,71.80
2022-12-23T01:27:31.178Z,63.30
2022-12-23T01:29:59.359Z,86.90
2022-12-23T01:32:27.360Z,86.00
2022-12-23T01:34:55.327Z,93.40
2022-12-23T01:37:23.510Z,78.60
2022-12-23T01:39:51.705Z,68.50
2022-12-23T01:42:39.861Z,58.40
2022-12-23T01:45:19.121Z,68.40
2022-12-23T01:47:58.561Z,52.40
2022-12-23T01:50:29.631Z,74.10
2022-12-23T01:53:15.474Z,43.50
2022-12-23T01:55:52.151Z,50.50
2022-12-23T01:58:25.975Z,63.30
2022-12-23T02:01:15.639Z,71.40
2022-12-23T02:03:46.693Z,72.60
2022-12-23T02:06:46.598Z,86.20
2022-12-23T02:09:21.461Z,88.00
2022-12-23T02:12:09.752Z,93.00
2022-12-23T02:15:14.624Z,87.70
2022-12-23T02:17:57.974Z,89.60
2022-12-23T02:20:53.677Z,90.20
2022-12-23T02:23:33.875Z,88.70
2022-12-23T02:26:10.807Z,90.00
2022-12-23T02:29:00.524Z,100.10
2022-12-23T02:31:49.516Z,77.20
2022-12-23T02:34:40.617Z,107.70
2022-12-23T02:37:19.305Z,112.60
2022-12-23T02:40:22.860Z,86.10
2022-12-23T02:45:35.687Z,102.70
2022-12-23T02:48:11.501Z,105.40
2022-12-23T02:50:43.062Z,93.60
2022-12-23T02:53:17.881Z,100.40
2022-12-23T02:55:49.206Z,111.80
2022-12-23T02:58:21.343Z,107.90
2022-12-23T03:00:50.777Z,71.60
2022-12-23T03:03:21.405Z,49.10
2022-12-23T03:05:51.618Z,101.20
2022-12-23T03:08:26.923Z,113.40
2022-12-23T03:11:07.750Z,57.00
2022-12-23T03:14:13.194Z,54.60
2022-12-23T03:16:56.608Z,104.80
2022-12-23T03:19:47.525Z,106.80
2022-12-23T03:22:27.484Z,102.90
2022-12-23T03:25:11.532Z,103.90
2022-12-23T03:27:49.605Z,99.50
2022-12-23T03:30:19.836Z,65.60
2022-12-23T03:32:59.631Z,74.40
2022-12-23T03:35:34.512Z,94.40
2022-12-23T03:38:03.845Z,96.20
2022-12-23T03:40:45.366Z,84.90
2022-12-23T03:43:21.312Z,54.50
2022-12-23T03:45:54.931Z,94.90
2022-12-23T03:48:29.196Z,99.20
2022-12-23T03:51:03.130Z,109.60
2022-12-23T03:53:38.313Z,100.90
2022-12-23T03:56:26.295Z,104.00
2022-12-23T03:59:06.889Z,102.00
2022-12-23T04:01:41.157Z,106.00
2022-12-23T04:04:26.534Z,72.90
2022-12-23T04:07:01.117Z,48.60
2022-12-23T04:09:29.674Z,106.40
2022-12-23T04:11:58.953Z,84.30
2022-12-23T04:14:27.048Z,91.00
2022-12-23T04:16:59.326Z,70.10
2022-12-23T04:19:27.375Z,97.20
2022-12-23T04:21:57.248Z,111.90
2022-12-23T04:24:25.484Z,124.00
2022-12-23T04:26:53.471Z,113.20
2022-12-23T04:29:21.536Z,106.40
2022-12-23T04:31:49.634Z,74.50
2022-12-23T04:34:18.480Z,114.30
2022-12-23T04:36:46.578Z,106.40
2022-12-23T04:39:14.866Z,102.70
2022-12-23T04:41:42.826Z,107.30
2022-12-23T04:44:10.982Z,84.30
2022-12-23T04:46:39.335Z,103.00
2022-12-23T04:49:07.467Z,98.50
2022-12-23T04:51:35.856Z,141.00
2022-12-23T04:54:04.112Z,117.00
2022-12-23T04:56:32.274Z,100.20
2022-12-23T04:59:02.339Z,120.20
2022-12-23T05:01:30.596Z,96.70
2022-12-23T05:03:58.786Z,96.20
2022-12-23T05:06:26.877Z,102.20
2022-12-23T05:08:54.939Z,110.60
2022-12-23T05:11:23.014Z,69.20
2022-12-23T05:13:51.907Z,60.60
2022-12-23T05:16:19.987Z,76.10
2022-12-23T05:18:48.145Z,98.30
2022-12-23T05:21:16.276Z,120.10
2022-12-23T05:23:44.421Z,112.10
2022-12-23T05:26:12.387Z,158.10
2022-12-23T05:28:40.497Z,107.90
2022-12-23T05:31:08.795Z,91.50
2022-12-23T05:33:36.998Z,134.90
2022-12-23T05:36:05.988Z,103.80
2022-12-23T05:38:34.058Z,85.30
2022-12-23T05:41:02.544Z,67.20
2022-12-23T05:43:30.652Z,88.30
2022-12-23T05:45:58.725Z,103.70
2022-12-23T05:48:26.838Z,105.80
2022-12-23T05:50:55.018Z,99.80
2022-12-23T05:53:24.007Z,106.50
2022-12-23T05:55:52.156Z,91.50
2022-12-23T05:58:20.275Z,100.30
2022-12-23T06:00:48.356Z,100.60
2022-12-23T06:03:16.991Z,97.10
2022-12-23T06:05:45.455Z,97.60
2022-12-23T06:08:13.679Z,94.00
2022-12-23T06:10:41.699Z,101.40
2022-12-23T06:13:09.770Z,82.70
2022-12-23T06:15:37.859Z,58.10
2022-12-23T06:18:06.247Z,56.10
2022-12-23T06:20:34.673Z,74.10
2022-12-23T06:23:02.633Z,103.80
2022-12-23T06:25:30.746Z,94.00
2022-12-23T06:27:59.699Z,101.60
2022-12-23T06:30:27.805Z,130.80
2022-12-23T06:32:55.942Z,65.10
2022-12-23T06:35:24.207Z,88.10
2022-12-23T06:37:55.079Z,79.00
2022-12-23T06:40:23.080Z,118.10
2022-12-23T06:42:51.099Z,136.10
2022-12-23T06:45:19.315Z,120.10
2022-12-23T06:47:47.374Z,123.10
2022-12-23T06:50:16.440Z,121.90
2022-12-23T06:52:46.183Z,133.30
2022-12-23T06:55:14.256Z,208.40
2022-12-23T06:57:42.367Z,224.50
2022-12-23T07:00:10.927Z,161.70
2022-12-23T07:02:39.078Z,126.20
2022-12-23T07:05:07.637Z,103.20
2022-12-23T07:07:35.902Z,143.50
2022-12-23T07:10:04.530Z,115.20
2022-12-23T07:12:32.741Z,72.30
2022-12-23T07:15:01.112Z,131.70
2022-12-23T07:17:29.884Z,107.80
2022-12-23T07:19:58.789Z,82.00
2022-12-23T07:22:27.095Z,62.30
2022-12-23T07:24:55.888Z,88.50
2022-12-23T07:27:24.171Z,69.70
2022-12-23T07:29:52.221Z,76.60
2022-12-23T07:32:20.381Z,118.40
2022-12-23T07:34:48.660Z,116.50
2022-12-23T07:37:16.826Z,117.40
2022-12-23T07:39:44.877Z,129.30
2022-12-23T07:45:01.917Z,142.30
2022-12-23T07:47:30.063Z,94.80
2022-12-23T07:49:58.100Z,63.60
2022-12-23T07:52:26.195Z,119.40
2022-12-23T07:54:54.215Z,98.50
2022-12-23T07:57:22.447Z,97.90
2022-12-23T07:59:51.116Z,98.10
2022-12-23T08:02:22.608Z,94.60
2022-12-23T08:04:52.189Z,86.90
2022-12-23T08:07:20.798Z,93.60
2022-12-23T08:09:48.993Z,98.10
2022-12-23T08:12:17.358Z,85.10
2022-12-23T08:14:47.026Z,89.80
2022-12-23T08:17:16.113Z,92.30
2022-12-23T08:19:44.304Z,89.70
2022-12-23T08:22:12.384Z,95.40
2022-12-23T08:24:40.531Z,99.30
2022-12-23T08:27:08.631Z,106.20
2022-12-23T08:29:40.136Z,92.10
2022-12-23T08:32:08.913Z,95.90
2022-12-23T08:34:37.112Z,80.00
2022-12-23T08:37:06.868Z,88.80
2022-12-23T08:39:35.698Z,73.90
2022-12-23T08:42:04.562Z,101.80
2022-12-23T08:44:33.031Z,107.60
2022-12-23T08:47:01.276Z,134.10
2022-12-23T08:49:29.801Z,100.60
2022-12-23T08:51:58.231Z,88.20
2022-12-23T08:54:27.233Z,104.60
2022-12-23T08:56:55.306Z,73.30
2022-12-23T08:59:23.467Z,98.30
2022-12-23T09:01:51.818Z,76.10
2022-12-23T09:04:20.006Z,88.40
2022-12-23T09:06:49.018Z,72.30
2022-12-23T09:09:17.826Z,70.10
2022-12-23T09:11:46.062Z,91.70
2022-12-23T09:14:14.253Z,71.50
2022-12-23T09:16:42.372Z,71.70
2022-12-23T09:19:10.466Z,88.30
2022-12-23T09:21:38.610Z,67.80
2022-12-23T09:24:06.965Z,51.50
2022-12-23T09:26:34.995Z,53.00
2022-12-23T09:29:02.973Z,85.20
2022-12-23T09:31:36.546Z,75.80
2022-12-23T09:34:06.102Z,96.60
2022-12-23T09:36:34.523Z,78.30
2022-12-23T09:39:03.099Z,115.20
2022-12-23T09:41:34.118Z,83.80
2022-12-23T09:44:33.708Z,77.70
2022-12-23T09:47:06.423Z,80.90
2022-12-23T09:49:35.083Z,80.00
2022-12-23T09:52:06.643Z,87.30
2022-12-23T09:54:46.012Z,89.60
2022-12-23T09:57:40.113Z,75.20
2022-12-23T10:00:13.634Z,73.60
2022-12-23T10:02:53.687Z,48.40
2022-12-23T10:05:25.086Z,86.40
2022-12-23T10:07:57.763Z,71.90
2022-12-23T10:10:31.891Z,72.00
2022-12-23T10:13:03.690Z,81.70
2022-12-23T10:15:44.020Z,83.00
2022-12-23T10:18:41.154Z,62.60
2022-12-23T10:21:46.964Z,79.80
2022-12-23T10:24:22.526Z,60.50
2022-12-23T10:27:32.308Z,47.90
2022-12-23T10:30:33.759Z,49.80
2022-12-23T10:33:11.307Z,88.30
2022-12-23T10:35:57.980Z,93.90
2022-12-23T10:39:02.808Z,81.00
2022-12-23T10:41:47.035Z,80.80
2022-12-23T10:44:46.349Z,84.30
2022-12-23T10:47:48.271Z,86.00
2022-12-23T10:50:34.906Z,85.70
2022-12-23T10:53:10.701Z,52.70
2022-12-23T10:55:39.859Z,72.80
2022-12-23T10:58:17.694Z,67.60
2022-12-23T11:00:52.172Z,61.20
2022-12-23T11:03:30.074Z,71.90
2022-12-23T11:05:59.530Z,54.90
2022-12-23T11:08:30.955Z,68.80
2022-12-23T11:11:01.437Z,51.40
2022-12-23T11:13:32.496Z,46.00
2022-12-23T11:16:21.022Z,73.60
2022-12-23T11:18:53.309Z,47.60
2022-12-23T11:21:21.487Z,63.80
2022-12-23T11:24:14.013Z,61.20
2022-12-23T11:26:43.702Z,75.10
2022-12-23T11:29:23.006Z,84.50
2022-12-23T11:31:51.966Z,65.60
2022-12-23T11:34:24.288Z,52.80
2022-12-23T11:37:07.024Z,56.70
2022-12-23T11:39:37.553Z,73.50
2022-12-23T11:42:20.624Z,70.00
2022-12-23T11:44:52.917Z,67.80
2022-12-23T11:47:29.290Z,67.00
2022-12-23T11:50:01.306Z,72.70
2022-12-23T11:52:32.703Z,65.70
2022-12-23T11:55:05.930Z,58.30
2022-12-23T11:57:43.044Z,60.80
2022-12-23T12:00:25.200Z,51.50
2022-12-23T12:02:56.631Z,52.70
2022-12-23T12:05:33.788Z,49.60
2022-12-23T12:08:11.700Z,71.80
2022-12-23T12:10:41.918Z,69.20
2022-12-23T12:13:28.171Z,54.50
2022-12-23T12:16:05.275Z,57.20
2022-12-23T12:18:35.005Z,44.90
2022-12-23T12:21:10.142Z,50.00
2022-12-23T12:24:08.286Z,64.90
2022-12-23T12:26:41.352Z,52.50
2022-12-23T12:29:15.409Z,73.40
2022-12-23T12:31:48.314Z,57.90
2022-12-23T12:34:52.150Z,45.00
2022-12-23T12:37:26.364Z,44.90
2022-12-23T12:39:58.333Z,72.60
2022-12-23T12:42:41.013Z,89.60
2022-12-23T12:45:15.263Z,44.80
2022-12-23T12:47:54.474Z,43.50
2022-12-23T12:50:33.388Z,56.40
2022-12-23T12:53:14.781Z,71.70
2022-12-23T12:55:50.455Z,59.10
2022-12-23T12:58:21.464Z,72.50
2022-12-23T13:01:15.962Z,67.00
2022-12-23T13:03:43.914Z,71.70
2022-12-23T13:06:38.479Z,60.40
2022-12-23T13:09:37.167Z,65.30
2022-12-23T13:12:21.228Z,67.20
2022-12-23T13:15:03.183Z,62.20
2022-12-23T13:18:13.094Z,62.70
2022-12-23T13:20:52.718Z,57.90
2022-12-23T13:23:46.358Z,75.60
2022-12-23T13:26:40.005Z,84.00
2022-12-23T13:29:28.727Z,78.90
2022-12-23T13:32:03.589Z,70.50
2022-12-23T13:34:48.045Z,56.50
2022-12-23T13:37:32.206Z,55.00
2022-12-23T13:40:08.383Z,63.40
2022-12-23T13:42:44.087Z,42.00
2022-12-23T13:45:18.173Z,73.20
2022-12-23T13:48:30.928Z,73.20
2022-12-23T13:51:16.874Z,50.20
2022-12-23T13:54:05.002Z,41.50
2022-12-23T13:56:45.243Z,47.30
2022-12-23T13:59:16.407Z,46.50
2022-12-23T14:01:48.098Z,48.20
2022-12-23T14:04:54.543Z,59.60
2022-12-23T14:07:24.141Z,50.00
2022-12-23T14:09:56.543Z,40.60
2022-12-23T14:12:36.885Z,42.90
2022-12-23T14:15:23.634Z,63.30
2022-12-23T14:18:31.015Z,54.90
2022-12-23T14:21:11.415Z,61.40
2022-12-23T14:24:04.756Z,59.90
2022-12-23T14:26:51.701Z,61.60
2022-12-23T14:29:38.493Z,80.90
2022-12-23T14:32:25.056Z,61.20
2022-12-23T14:35:24.165Z,68.30
2022-12-23T14:38:23.256Z,56.30
2022-12-23T14:41:17.159Z,72.00
2022-12-23T14:43:45.254Z,73.90
2022-12-23T14:46:36.153Z,66.20
2022-12-23T14:49:38.109Z,61.40
2022-12-23T14:52:39.349Z,51.40
2022-12-23T14:55:32.960Z,102.50
2022-12-23T14:58:18.870Z,60.90
2022-12-23T15:00:56.605Z,86.40
2022-12-23T15:03:24.718Z,76.80
2022-12-23T15:05:53.079Z,88.80
2022-12-23T15:08:35.765Z,110.00
2022-12-23T15:11:05.524Z,64.50
2022-12-23T15:13:34.344Z,85.60
2022-12-23T15:16:02.594Z,71.70
2022-12-23T15:18:30.828Z,70.10
2022-12-23T15:21:04.727Z,85.90
2022-12-23T15:23:33.418Z,87.10
2022-12-23T15:26:02.405Z,90.70
2022-12-23T15:28:40.383Z,76.10
2022-12-23T15:31:28.714Z,61.50
2022-12-23T15:34:03.621Z,60.10
2022-12-23T15:36:37.321Z,69.10
2022-12-23T15:39:10.224Z,62.40
2022-12-23T15:44:14.414Z,40.50
2022-12-23T15:49:13.941Z,95.20
2022-12-23T15:52:07.603Z,103.00
2022-12-23T15:54:45.562Z,88.00
2022-12-23T15:57:20.637Z,87.50
2022-12-23T15:59:49.210Z,91.90
2022-12-23T16:02:59.539Z,69.50
2022-12-23T16:05:38.612Z,118.10
2022-12-23T16:08:21.743Z,109.00
2022-12-23T16:11:01.066Z,104.20
2022-12-23T16:13:29.218Z,121.40
2022-12-23T16:16:38.012Z,104.00
2022-12-23T16:19:26.793Z,106.10
2022-12-23T16:21:55.066Z,108.40
2022-12-23T16:24:23.115Z,95.30
2022-12-23T16:26:51.267Z,107.10
2022-12-23T16:29:19.534Z,80.70
2022-12-23T16:31:52.280Z,98.90
2022-12-23T16:34:25.901Z,126.60
2022-12-23T16:36:53.970Z,141.40
2022-12-23T16:39:23.356Z,145.80
2022-12-23T16:41:52.104Z,120.90
2022-12-23T16:44:21.209Z,74.30
2022-12-23T16:46:51.108Z,136.90
2022-12-23T16:49:26.584Z,136.10
2022-12-23T16:51:57.845Z,130.90
2022-12-23T16:54:25.972Z,94.60
2022-12-23T16:56:54.114Z,138.70
2022-12-23T16:59:22.592Z,130.60
2022-12-23T17:01:51.303Z,143.80
2022-12-23T17:04:19.360Z,92.50
2022-12-23T17:06:47.542Z,145.90
2022-12-23T17:09:15.772Z,145.60
2022-12-23T17:11:47.776Z,130.80
2022-12-23T17:14:19.351Z,128.10
2022-12-23T17:16:48.493Z,135.40
2022-12-23T17:19:23.358Z,140.40
2022-12-23T17:21:59.377Z,158.20
2022-12-23T17:24:28.022Z,149.40
2022-12-23T17:26:57.600Z,148.20
2022-12-23T17:29:25.639Z,143.40
2022-12-23T17:31:54.656Z,128.30
2022-12-23T17:34:24.463Z,75.10
2022-12-23T17:36:53.117Z,112.10
2022-12-23T17:39:22.393Z,125.80
2022-12-23T17:41:50.691Z,113.10
2022-12-23T17:44:19.107Z,85.80
2022-12-23T17:46:47.399Z,114.00
2022-12-23T17:49:15.579Z,105.90
2022-12-23T17:51:43.797Z,83.40
2022-12-23T17:54:25.261Z,95.40
2022-12-23T17:56:53.473Z,72.40
2022-12-23T17:59:22.022Z,94.70
2022-12-23T18:01:50.698Z,108.40
2022-12-23T18:04:25.851Z,117.90
2022-12-23T18:07:04.071Z,83.30
2022-12-23T18:09:32.212Z,105.30
2022-12-23T18:12:00.440Z,76.30
2022-12-23T18:14:28.571Z,55.00
2022-12-23T18:16:56.621Z,94.00
2022-12-23T18:19:25.263Z,61.90
2022-12-23T18:21:53.271Z,109.40
2022-12-23T18:24:21.383Z,80.10
2022-12-23T18:26:50.413Z,50.00
2022-12-23T18:29:18.674Z,91.00
2022-12-23T18:31:51.549Z,102.20
2022-12-23T18:34:21.256Z,73.40
2022-12-23T18:36:51.938Z,84.30
2022-12-23T18:39:21.192Z,57.40
2022-12-23T18:41:49.377Z,38.70
2022-12-23T18:44:21.376Z,51.90
2022-12-23T18:46:50.687Z,58.60
2022-12-23T18:49:18.799Z,88.20
2022-12-23T18:51:47.196Z,87.30
2022-12-23T18:54:16.463Z,94.70
2022-12-23T18:56:44.547Z,71.30
2022-12-23T18:59:21.341Z,61.40
2022-12-23T19:01:52.348Z,82.30
2022-12-23T19:04:20.588Z,121.80
2022-12-23T19:06:48.698Z,108.00
2022-12-23T19:09:22.396Z,77.70
2022-12-23T19:11:52.507Z,76.10
2022-12-23T19:14:20.584Z,132.50
2022-12-23T19:16:52.021Z,111.70
2022-12-23T19:19:21.946Z,114.70
2022-12-23T19:21:50.121Z,124.40
2022-12-23T19:24:18.380Z,123.30
2022-12-23T19:26:46.530Z,95.00
2022-12-23T19:29:14.612Z,112.00
2022-12-23T19:31:42.874Z,121.00
2022-12-23T19:34:15.083Z,129.20
2022-12-23T19:36:44.289Z,119.80
2022-12-23T19:39:16.813Z,116.60
2022-12-23T19:44:13.665Z,58.60
2022-12-23T19:46:41.766Z,143.80
2022-12-23T19:49:15.649Z,101.70
2022-12-23T19:51:45.884Z,63.10
2022-12-23T19:54:13.973Z,55.20
2022-12-23T19:56:42.144Z,92.70
2022-12-23T19:59:10.408Z,108.00
2022-12-23T20:01:38.394Z,103.90
2022-12-23T20:04:06.601Z,107.20
2022-12-23T20:06:38.331Z,119.80
2022-12-23T20:09:08.426Z,127.70
2022-12-23T20:11:42.177Z,113.70
2022-12-23T20:14:11.948Z,116.10
2022-12-23T20:16:40.979Z,127.70
2022-12-23T20:19:09.084Z,98.40
2022-12-23T20:21:37.580Z,81.70
2022-12-23T20:24:06.363Z,103.90
2022-12-23T20:26:34.659Z,123.90
2022-12-23T20:29:03.142Z,116.90
2022-12-23T20:31:33.398Z,107.20
2022-12-23T20:34:02.511Z,114.10
2022-12-23T20:36:33.166Z,106.50
2022-12-23T20:39:03.490Z,110.00
2022-12-23T20:41:32.936Z,122.60
2022-12-23T20:46:49.209Z,116.80
2022-12-23T20:49:17.263Z,109.40
2022-12-23T20:51:45.322Z,73.70
2022-12-23T20:54:13.281Z,95.30
2022-12-23T20:56:41.207Z,84.70
2022-12-23T20:59:09.180Z,106.60
2022-12-23T21:01:39.900Z,88.30
2022-12-23T21:04:16.001Z,76.70
2022-12-23T21:06:44.699Z,90.30
2022-12-23T21:09:15.438Z,86.70
2022-12-23T21:11:46.563Z,77.30
2022-12-23T21:14:15.393Z,93.80
2022-12-23T21:16:43.920Z,92.10
2022-12-23T21:19:20.791Z,88.60
2022-12-23T21:21:50.041Z,160.30
2022-12-23T21:24:19.101Z,136.50
2022-12-23T21:26:55.538Z,130.70
2022-12-23T21:29:27.201Z,91.40
2022-12-23T21:31:55.583Z,81.70
2022-12-23T21:34:23.969Z,104.30
2022-12-23T21:36:52.038Z,75.20
2022-12-23T21:39:20.756Z,88.70
2022-12-23T21:41:51.560Z,133.20
2022-12-23T21:44:19.923Z,110.40
2022-12-23T21:46:50.275Z,118.30
2022-12-23T21:49:19.624Z,171.10
2022-12-23T21:51:48.044Z,167.30
2022-12-23T21:54:16.026Z,74.60
2022-12-23T21:56:44.029Z,76.10
2022-12-23T21:59:14.136Z,79.40
2022-12-23T22:01:43.125Z,75.60
2022-12-23T22:04:12.058Z,80.40
2022-12-23T22:06:44.771Z,120.30
2022-12-23T22:11:43.458Z,89.80
2022-12-23T22:14:14.539Z,75.00
2022-12-23T22:16:42.788Z,111.80
2022-12-23T22:19:11.775Z,114.70
2022-12-23T22:21:40.014Z,116.50
2022-12-23T22:24:08.853Z,78.50
2022-12-23T22:26:37.142Z,65.30
2022-12-23T22:29:07.109Z,69.80
2022-12-23T22:31:46.044Z,68.20
2022-12-23T22:34:20.593Z,78.90
2022-12-23T22:36:49.590Z,118.30
2022-12-23T22:39:22.045Z,130.20
2022-12-23T22:41:51.810Z,95.50
2022-12-23T22:44:21.176Z,125.10
2022-12-23T22:46:49.488Z,66.10
2022-12-23T22:49:18.127Z,114.10
2022-12-23T22:51:46.525Z,132.10
2022-12-23T22:54:14.720Z,111.10
2022-12-23T22:56:42.879Z,114.30
2022-12-23T22:59:20.297Z,127.90
2022-12-23T23:01:50.252Z,97.40
2022-12-23T23:04:19.114Z,120.70
2022-12-23T23:06:47.246Z,118.20
2022-12-23T23:09:18.351Z,80.40
2022-12-23T23:11:46.913Z,117.90
2022-12-23T23:14:15.470Z,67.30
2022-12-23T23:16:43.593Z,43.20
2022-12-23T23:19:12.174Z,55.70
2022-12-23T23:21:40.208Z,98.00
2022-12-23T23:24:08.774Z,98.40
2022-12-23T23:26:37.034Z,88.40
2022-12-23T23:29:05.130Z,90.70
2022-12-23T23:31:42.937Z,77.40
2022-12-23T23:34:12.593Z,99.80
2022-12-23T23:36:40.742Z,75.70
2022-12-23T23:39:11.078Z,69.40
2022-12-23T23:41:39.091Z,55.40
2022-12-23T23:44:07.089Z,59.30
2022-12-23T23:46:35.206Z,100.00
2022-12-23T23:49:03.770Z,54.70
2022-12-23T23:51:31.830Z,75.20
2022-12-23T23:53:59.832Z,60.40
2022-12-23T23:56:33.876Z,68.70
2022-12-23T23:59:06.645Z,58.10
